Time;durP1;ratioP1;P1;durP2;ratioP2;P2;SDS_P1;SDS_P2;PMS_P1;PMS_P2;Temp;Humidity;BMP_temperature;BMP_pressure;BME280_temperature;BME280_humidity;BME280_pressure;Samples;Min_cycle;Max_cycle;Signal;HPM_P1;HPM_P2
2022/12/07 00:01:17;;;;;;;;;68.50;53.75;;;;;6.21;74.32;101810.69;5013207;28;45849;-74
2022/12/07 00:03:44;;;;;;;;;67.00;52.25;;;;;6.16;74.59;101803.78;5011994;28;45446;-74
2022/12/07 00:06:12;;;;;;;;;65.25;54.25;;;;;6.14;75.44;101790.56;4996048;28;45464;-74
2022/12/07 00:08:39;;;;;;;;;71.50;56.75;;;;;6.09;75.35;101800.41;5011028;28;45692;-72
2022/12/07 00:11:13;;;;;;;;;69.75;56.75;;;;;5.97;75.16;101798.88;5013883;28;45429;-74
2022/12/07 00:13:39;;;;;;;;;66.75;52.25;;;;;6.06;75.76;101797.81;5011252;28;45545;-74
2022/12/07 00:16:10;;;;;;;;;69.50;56.00;;;;;6.19;75.49;101798.38;4994734;28;48618;-73
2022/12/07 00:18:36;;;;;;;;;60.25;51.50;;;;;6.29;74.38;101793.72;5013547;28;45367;-73
2022/12/07 00:21:12;;;;;;;;;70.25;56.50;;;;;6.27;74.71;101793.78;5013291;28;45872;-73
2022/12/07 00:23:38;;;;;;;;;67.25;53.50;;;;;6.30;75.42;101798.13;4994652;28;45411;-74
2022/12/07 00:26:10;;;;;;;;;65.75;54.25;;;;;6.28;74.51;101781.41;4977064;28;46299;-74
2022/12/07 00:28:36;;;;;;;;;64.00;52.50;;;;;6.17;74.79;101784.31;4999393;28;45354;-74
2022/12/07 00:31:07;;;;;;;;;68.00;55.50;;;;;6.26;74.75;101788.50;4996533;28;45370;-74
2022/12/07 00:33:33;;;;;;;;;65.25;51.50;;;;;6.28;74.76;101787.56;5011443;28;45438;-74
2022/12/07 00:35:59;;;;;;;;;64.00;53.25;;;;;6.20;74.67;101784.25;4996857;28;45435;-74
2022/12/07 00:38:28;;;;;;;;;62.50;50.75;;;;;5.61;74.65;101682.31;5014813;28;45481;-74
2022/12/07 00:41:02;;;;;;;;;57.75;47.25;;;;;5.71;75.31;101706.81;5014330;28;45481;-73
2022/12/07 00:56:54;;;;;;;;;60.50;48.75;;;;;5.73;75.26;101798.50;4994762;28;45674;-74
2022/12/07 00:59:19;;;;;;;;;61.75;49.50;;;;;5.33;76.32;101751.75;4993730;28;46026;-74
2022/12/07 01:01:45;;;;;;;;;59.00;46.00;;;;;5.58;76.52;101766.22;4994079;28;45400;-74
2022/12/07 01:04:10;;;;;;;;;53.75;43.25;;;;;5.65;75.43;101789.00;4994584;28;45474;-74
2022/12/07 01:06:36;;;;;;;;;59.75;46.50;;;;;5.56;75.86;101783.00;4994539;28;45364;-74
2022/12/07 01:09:03;;;;;;;;;66.25;54.50;;;;;5.37;76.96;101789.59;4994219;28;46189;-74
2022/12/07 01:11:30;;;;;;;;;62.00;47.75;;;;;5.45;76.71;101778.84;4976374;28;45793;-74
2022/12/07 01:13:57;;;;;;;;;54.00;46.25;;;;;5.25;76.66;101758.97;4994072;28;45482;-74
2022/12/07 01:16:24;;;;;;;;;53.75;40.75;;;;;5.47;76.75;101782.34;4996475;28;45763;-73
2022/12/07 01:18:53;;;;;;;;;48.00;43.00;;;;;5.45;76.86;101774.41;5013883;28;47206;-74
2022/12/07 01:21:23;;;;;;;;;56.50;45.25;;;;;5.49;77.30;101780.53;5014013;28;45410;-75
2022/12/07 01:23:49;;;;;;;;;54.25;46.25;;;;;4.94;76.80;101717.28;5015059;28;45458;-74
2022/12/07 01:43:14;;;;;;;;;49.50;37.50;;;;;5.10;78.41;101772.50;5000181;28;45437;-74
2022/12/07 01:45:41;;;;;;;;;48.00;39.25;;;;;4.76;79.18;101730.88;5000327;28;45677;-74
2022/12/07 01:48:10;;;;;;;;;55.00;41.75;;;;;4.95;78.95;101766.59;5015689;28;45568;-74
2022/12/07 01:50:37;;;;;;;;;48.25;37.75;;;;;5.03;79.46;101771.75;5001858;28;45406;-74
2022/12/07 01:53:06;;;;;;;;;34.50;32.75;;;;;5.13;79.47;101768.03;5020055;28;46097;-74
2022/12/07 01:55:32;;;;;;;;;44.50;35.25;;;;;4.78;78.73;101708.78;5019737;28;45411;-74
2022/12/07 01:57:58;;;;;;;;;37.50;36.50;;;;;5.10;78.48;101751.34;5002203;28;45593;-74
2022/12/07 02:00:23;;;;;;;;;42.25;37.00;;;;;5.19;78.79;101752.03;5019843;28;45382;-74
2022/12/07 02:03:03;;;;;;;;;37.75;36.25;;;;;4.85;78.79;101701.59;5019487;28;46204;-74
2022/12/07 02:05:28;;;;;;;;;44.00;37.00;;;;;5.25;78.49;101744.88;5019765;28;45414;-74
2022/12/07 02:07:57;;;;;;;;;38.50;34.50;;;;;4.78;79.05;101682.34;5019150;28;45525;-74
2022/12/07 02:10:25;;;;;;;;;34.00;29.50;;;;;5.29;78.34;101757.13;5019732;28;45642;-74
2022/12/07 02:13:04;;;;;;;;;38.75;36.00;;;;;5.08;78.47;101716.13;5019848;28;46243;-75
2022/12/07 02:15:52;;;;;;;;;35.50;31.25;;;;;5.38;78.13;101752.53;5019837;28;45384;-74
2022/12/07 02:18:42;;;;;;;;;40.00;34.75;;;;;5.52;78.42;101753.97;5018581;28;45376;-74
2022/12/07 02:21:15;;;;;;;;;38.25;34.50;;;;;5.62;78.21;101757.31;5019331;28;45475;-74
2022/12/07 02:23:59;;;;;;;;;38.25;35.50;;;;;5.65;77.74;101757.22;5019641;28;46286;-75
2022/12/07 02:26:48;;;;;;;;;39.25;34.00;;;;;5.73;77.33;101757.94;5019506;28;45574;-74
2022/12/07 02:29:27;;;;;;;;;33.25;32.50;;;;;5.73;76.82;101763.22;5019870;28;45494;-74
2022/12/07 02:32:08;;;;;;;;;38.00;31.25;;;;;5.58;77.15;101753.00;5002204;28;45466;-75
2022/12/07 02:34:59;;;;;;;;;37.25;30.00;;;;;5.52;77.41;101746.94;5019934;28;45430;-75
2022/12/07 02:37:51;;;;;;;;;37.25;31.25;;;;;5.53;77.34;101761.03;5017344;28;45498;-74
2022/12/07 02:40:31;;;;;;;;;45.25;37.25;;;;;5.38;77.16;101709.28;5016070;28;45444;-75
2022/12/07 02:43:03;;;;;;;;;37.00;33.75;;;;;5.70;76.86;101742.97;5016252;28;45388;-74
2022/12/07 02:45:31;;;;;;;;;36.25;29.75;;;;;5.29;76.36;101676.00;5016069;28;45548;-74
2022/12/07 02:48:00;;;;;;;;;38.75;36.25;;;;;5.81;76.82;101760.41;5015861;28;45453;-74
2022/12/07 02:50:27;;;;;;;;;34.00;30.50;;;;;5.32;76.66;101657.38;5016307;28;45392;-74
2022/12/07 02:52:52;;;;;;;;;32.75;30.00;;;;;5.89;76.70;101753.16;4998445;28;46094;-74
2022/12/07 02:55:23;;;;;;;;;45.75;38.50;;;;;5.82;76.57;101752.41;5015746;28;46142;-74
2022/12/07 02:58:00;;;;;;;;;36.50;29.50;;;;;5.88;77.04;101746.09;5016025;28;45446;-74
2022/12/07 03:00:25;;;;;;;;;46.00;37.25;;;;;5.70;76.42;101753.56;5015747;28;45448;-74
2022/12/07 03:03:00;;;;;;;;;47.50;38.00;;;;;5.24;76.99;101677.88;5015693;28;45476;-75
2022/12/07 03:05:38;;;;;;;;;37.75;34.25;;;;;5.61;77.62;101742.31;5016014;28;45421;-74
2022/12/07 03:08:15;;;;;;;;;50.00;40.50;;;;;5.52;77.83;101748.69;4997646;28;45710;-74
2022/12/07 03:11:06;;;;;;;;;40.75;33.50;;;;;5.46;78.20;101743.53;5016049;28;45411;-74
2022/12/07 03:13:50;;;;;;;;;32.25;29.50;;;;;5.39;78.40;101748.09;5015916;28;45446;-74
2022/12/07 03:16:21;;;;;;;;;33.50;33.50;;;;;5.38;78.53;101749.00;4997675;28;46019;-74
2022/12/07 03:18:52;;;;;;;;;41.25;31.75;;;;;5.44;78.33;101745.34;5015738;28;45448;-74
2022/12/07 03:21:24;;;;;;;;;34.75;32.00;;;;;5.50;77.72;101742.56;5015571;28;45456;-74
2022/12/07 03:23:53;;;;;;;;;38.25;32.75;;;;;5.59;77.38;101739.72;5015028;28;45420;-74
2022/12/07 03:26:24;;;;;;;;;43.75;32.25;;;;;5.56;76.85;101731.84;5015229;28;46094;-74
2022/12/07 03:28:54;;;;;;;;;34.75;29.00;;;;;5.55;77.41;101735.41;4995207;28;46207;-74
2022/12/07 03:31:25;;;;;;;;;34.50;27.00;;;;;5.64;77.08;101726.38;5011511;28;45445;-74
2022/12/07 03:34:01;;;;;;;;;38.25;34.75;;;;;5.68;76.94;101730.69;4994212;28;45475;-74
2022/12/07 03:36:31;;;;;;;;;39.50;35.00;;;;;5.71;76.43;101726.19;4977706;28;48802;-75
2022/12/07 03:39:18;;;;;;;;;46.00;36.75;;;;;5.67;76.64;101713.94;4999235;28;45441;-74
2022/12/07 03:41:44;;;;;;;;;34.00;30.25;;;;;3.36;77.20;101357.69;5015258;28;45405;-74
2022/12/07 03:44:09;;;;;;;;;34.75;30.25;;;;;5.57;77.89;101712.41;5015073;28;45502;-74
2022/12/07 03:46:44;;;;;;;;;42.25;35.00;;;;;5.53;77.14;101710.72;5015315;28;45414;-75
2022/12/07 03:49:30;;;;;;;;;48.00;33.25;;;;;5.31;77.49;101713.84;5014728;28;45448;-75
2022/12/07 03:52:17;;;;;;;;;32.00;27.25;;;;;5.33;78.12;101716.47;5015038;28;45414;-74
2022/12/07 03:54:53;;;;;;;;;29.50;27.75;;;;;5.44;77.66;101711.81;5015172;28;45620;-74
2022/12/07 03:57:20;;;;;;;;;32.50;29.75;;;;;4.88;77.26;101612.50;5014633;28;45604;-74
2022/12/07 03:59:47;;;;;;;;;30.25;28.50;;;;;5.27;77.58;101667.19;5014627;28;45449;-75
2022/12/07 04:02:14;;;;;;;;;29.75;26.25;;;;;5.12;77.45;101626.09;4997358;28;45478;-74
2022/12/07 04:04:39;;;;;;;;;37.25;30.50;;;;;5.29;77.54;101649.53;5013212;28;45517;-75
2022/12/07 04:07:05;;;;;;;;;38.25;27.50;;;;;5.70;76.92;101721.81;5013822;28;45562;-74
2022/12/07 04:09:30;;;;;;;;;33.00;25.25;;;;;5.76;76.86;101719.91;5015252;28;45404;-75
2022/12/07 04:11:56;;;;;;;;;31.25;28.00;;;;;5.78;76.36;101726.06;5034707;28;45540;-74
2022/12/07 04:14:21;;;;;;;;;32.50;30.25;;;;;5.66;76.65;101709.53;5034436;28;45532;-74
2022/12/07 04:16:52;;;;;;;;;34.50;30.25;;;;;5.73;77.04;101719.06;5034492;28;46423;-74
2022/12/07 04:19:20;;;;;;;;;26.75;26.00;;;;;5.59;76.93;101709.72;5014222;28;45443;-74
2022/12/07 04:21:46;;;;;;;;;37.75;28.00;;;;;5.64;77.69;101718.41;5014565;28;45407;-75
2022/12/07 04:24:14;;;;;;;;;33.50;31.75;;;;;5.61;77.05;101722.00;5015787;28;45483;-74
2022/12/07 04:26:39;;;;;;;;;37.25;33.25;;;;;5.66;76.66;101724.56;5014374;28;45379;-75
2022/12/07 04:29:05;;;;;;;;;14.75;11.00;;;;;5.64;76.45;101714.03;5010940;28;45434;-75
2022/12/07 04:31:30;;;;;;;;;28.00;26.75;;;;;5.67;77.06;101718.38;5004854;28;45399;-75
2022/12/07 04:33:55;;;;;;;;;25.75;22.50;;;;;5.74;76.58;101719.97;5014739;28;45550;-75
2022/12/07 04:36:21;;;;;;;;;25.25;23.75;;;;;5.78;76.51;101718.13;5014601;28;45380;-75
2022/12/07 04:38:46;;;;;;;;;32.00;27.50;;;;;5.79;76.32;101715.44;5014873;28;45701;-75
2022/12/07 04:41:12;;;;;;;;;28.75;23.25;;;;;5.79;75.65;101711.91;5013855;28;45521;-74
2022/12/07 04:43:38;;;;;;;;;25.00;24.50;;;;;5.69;76.80;101714.75;5014024;28;45519;-75
2022/12/07 04:46:03;;;;;;;;;28.75;24.75;;;;;5.58;76.05;101703.56;5014378;28;45533;-75
2022/12/07 04:48:29;;;;;;;;;46.25;36.00;;;;;4.75;77.38;101612.81;5014353;28;45426;-75
2022/12/07 04:50:55;;;;;;;;;29.00;23.75;;;;;4.75;78.30;101641.88;4996221;28;45584;-74
2022/12/07 04:53:21;;;;;;;;;31.50;27.25;;;;;4.99;79.77;101702.16;5014569;28;45535;-75
2022/12/07 04:55:46;;;;;;;;;24.75;23.25;;;;;4.91;80.26;101703.25;4995856;28;46333;-75
2022/12/07 04:58:12;;;;;;;;;35.75;33.00;;;;;4.29;80.74;101607.56;5014574;28;45497;-75
2022/12/07 05:00:38;;;;;;;;;30.50;27.75;;;;;4.93;80.56;101712.03;4994091;28;45388;-75
2022/12/07 05:03:04;;;;;;;;;32.75;29.00;;;;;5.01;81.05;101703.03;5014142;28;45647;-75
2022/12/07 05:05:29;;;;;;;;;32.50;23.75;;;;;4.95;80.42;101705.78;5014053;28;46100;-75
2022/12/07 05:07:54;;;;;;;;;31.00;25.25;;;;;4.80;81.01;101712.25;5013711;28;45418;-75
2022/12/07 05:10:20;;;;;;;;;27.25;24.75;;;;;4.78;80.92;101707.91;5013949;28;45386;-74
2022/12/07 05:12:45;;;;;;;;;31.00;26.75;;;;;4.71;81.06;101700.09;5014294;28;45411;-75
2022/12/07 05:15:12;;;;;;;;;31.25;25.75;;;;;4.82;81.06;101710.47;5013836;28;45354;-75
2022/12/07 05:17:37;;;;;;;;;34.75;28.25;;;;;4.94;80.29;101726.97;5014053;28;45514;-75
2022/12/07 05:20:03;;;;;;;;;31.00;24.50;;;;;5.05;80.21;101712.63;5013713;28;45512;-75
2022/12/07 05:22:29;;;;;;;;;33.00;26.75;;;;;5.16;79.83;101717.69;5014068;28;45394;-75
2022/12/07 05:24:55;;;;;;;;;23.50;22.75;;;;;5.03;79.35;101661.56;5013725;28;47111;-75
2022/12/07 05:27:20;;;;;;;;;25.50;22.75;;;;;5.30;78.91;101721.81;5004123;28;45509;-75
2022/12/07 05:29:45;;;;;;;;;31.75;25.50;;;;;5.38;78.89;101717.22;4994344;28;46124;-75
2022/12/07 05:32:11;;;;;;;;;25.00;21.50;;;;;5.25;78.71;101686.66;5012352;28;45905;-75
2022/12/07 05:34:36;;;;;;;;;27.25;25.25;;;;;5.36;78.85;101711.97;4995797;28;46361;-75
2022/12/07 05:37:02;;;;;;;;;27.75;26.75;;;;;4.84;78.48;101629.31;5013928;28;45522;-75
2022/12/07 05:39:27;;;;;;;;;27.25;25.50;;;;;5.16;79.04;101714.19;5013998;28;45419;-75
2022/12/07 05:44:36;;;;;;;;;31.50;27.00;;;;;5.17;79.43;101719.44;5013589;28;45539;-75
2022/12/07 05:47:02;;;;;;;;;31.00;26.50;;;;;4.94;79.32;101700.53;5011852;28;45436;-75
2022/12/07 05:49:27;;;;;;;;;34.50;29.50;;;;;5.12;79.43;101713.38;5013384;28;45489;-75
2022/12/07 05:51:52;;;;;;;;;29.25;25.25;;;;;4.54;80.13;101652.00;5013541;28;45383;-75
2022/12/07 05:54:18;;;;;;;;;32.25;29.25;;;;;4.83;80.58;101706.03;5013574;28;46097;-75
2022/12/07 05:56:43;;;;;;;;;26.00;23.25;;;;;4.80;80.99;101711.41;5013488;28;45480;-75
2022/12/07 05:59:24;;;;;;;;;35.75;28.25;;;;;4.85;80.84;101714.81;5013256;28;45392;-74
2022/12/07 06:02:02;;;;;;;;;28.00;27.25;;;;;4.93;80.54;101720.81;5013394;28;45433;-74
2022/12/07 06:04:30;;;;;;;;;29.00;28.00;;;;;4.99;81.21;101704.81;5013270;28;46483;-74
2022/12/07 06:06:56;;;;;;;;;28.50;24.75;;;;;5.14;80.52;101711.59;5013187;28;45358;-74
2022/12/07 06:09:23;;;;;;;;;37.50;29.75;;;;;5.22;80.26;101714.03;5012440;28;45482;-74
2022/12/07 06:14:33;;;;;;;;;34.50;31.00;;;;;5.29;79.60;101713.03;5017259;28;45889;-73
2022/12/07 06:16:58;;;;;;;;;27.00;26.50;;;;;5.27;80.23;101706.03;5016435;28;45539;-73
2022/12/07 06:19:24;;;;;;;;;31.75;28.00;;;;;4.89;80.01;101626.59;5016875;28;45417;-72
2022/12/07 06:21:49;;;;;;;;;31.00;28.25;;;;;5.03;79.90;101658.91;5016955;28;45398;-72
2022/12/07 06:24:16;;;;;;;;;27.75;25.00;;;;;5.45;79.78;101704.75;5016580;28;45575;-72
2022/12/07 06:26:42;;;;;;;;;40.00;28.00;;;;;5.53;78.97;101703.69;4998847;28;45409;-73
2022/12/07 06:29:08;;;;;;;;;26.25;25.50;;;;;5.38;79.46;101701.34;4998414;28;45426;-73
2022/12/07 06:31:33;;;;;;;;;32.25;31.25;;;;;5.42;79.79;101707.47;5012011;28;45441;-72
2022/12/07 06:34:04;;;;;;;;;22.00;22.00;;;;;5.09;80.13;101664.97;4983831;28;47201;-72
2022/12/07 06:36:29;;;;;;;;;23.25;20.25;;;;;5.21;79.56;101699.97;5015049;28;45442;-72
2022/12/07 06:38:55;;;;;;;;;28.25;23.75;;;;;5.23;79.79;101708.72;5015461;28;45349;-73
2022/12/07 06:41:21;;;;;;;;;25.75;23.75;;;;;5.27;79.78;101717.47;5014617;28;45630;-73
2022/12/07 06:43:46;;;;;;;;;18.25;18.25;;;;;5.02;79.96;101680.09;5010533;28;47273;-72
2022/12/07 06:46:12;;;;;;;;;34.50;27.00;;;;;5.38;79.53;101720.78;4995886;28;45439;-73
2022/12/07 06:48:38;;;;;;;;;22.50;22.50;;;;;5.26;80.29;101683.13;4978936;28;45369;-72
2022/12/07 06:51:03;;;;;;;;;31.75;26.25;;;;;5.46;79.27;101722.38;4962310;28;45385;-72
2022/12/07 06:53:29;;;;;;;;;26.50;25.75;;;;;5.17;79.82;101652.44;5007169;28;45560;-73
2022/12/07 06:55:54;;;;;;;;;25.00;23.75;;;;;5.64;79.96;101715.78;5011438;28;45355;-72
2022/12/07 06:58:20;;;;;;;;;28.00;26.75;;;;;5.57;78.67;101712.41;5015751;28;45882;-72
2022/12/07 07:00:47;;;;;;;;;35.00;33.00;;;;;5.44;79.83;101714.47;5014820;28;45464;-72
2022/12/07 07:03:12;;;;;;;;;40.75;34.25;;;;;5.51;79.06;101701.97;5014981;28;45816;-73
2022/12/07 07:05:38;;;;;;;;;37.25;32.75;;;;;5.75;79.17;101704.94;4993812;28;46098;-72
2022/12/07 07:08:04;;;;;;;;;34.25;28.75;;;;;5.66;78.37;101704.25;5007837;28;45378;-72
2022/12/07 07:10:30;;;;;;;;;26.50;25.50;;;;;5.81;79.14;101710.09;5016300;28;45424;-72
2022/12/07 07:12:55;;;;;;;;;39.75;34.00;;;;;5.66;78.89;101712.19;5016085;28;46523;-73
2022/12/07 07:15:20;;;;;;;;;31.00;30.00;;;;;5.70;78.62;101713.00;5014712;28;45855;-72
2022/12/07 07:17:46;;;;;;;;;26.50;26.25;;;;;5.33;79.66;101669.72;5009840;28;45476;-71
2022/12/07 07:20:12;;;;;;;;;32.50;26.25;;;;;5.59;79.71;101715.91;5016200;28;45436;-73
2022/12/07 07:22:37;;;;;;;;;30.50;28.50;;;;;5.45;78.61;101670.34;5016650;28;45426;-73
2022/12/07 07:25:03;;;;;;;;;28.00;24.25;;;;;5.31;78.77;101654.78;4997449;28;45376;-70
2022/12/07 07:27:29;;;;;;;;;38.00;33.50;;;;;5.53;79.56;101716.91;5015979;28;45444;-73
2022/12/07 07:29:54;;;;;;;;;31.25;28.00;;;;;5.50;79.71;101724.03;5015441;28;45473;-74
2022/12/07 07:32:21;;;;;;;;;33.50;31.25;;;;;5.60;80.09;101715.00;4997704;28;45714;-73
2022/12/07 07:34:46;;;;;;;;;30.75;30.75;;;;;5.17;79.71;101655.97;5015631;28;45367;-73
2022/12/07 07:37:12;;;;;;;;;37.00;32.50;;;;;5.59;79.97;101707.06;5015263;28;45476;-72
2022/12/07 07:39:38;;;;;;;;;49.25;38.50;;;;;5.69;79.35;101714.75;5015509;28;45493;-73
2022/12/07 07:42:04;;;;;;;;;46.25;39.50;;;;;5.69;79.25;101713.91;5015235;28;45433;-72
2022/12/07 07:44:29;;;;;;;;;43.75;39.50;;;;;5.64;79.10;101706.06;4997215;28;46032;-74
2022/12/07 07:46:54;;;;;;;;;38.75;36.75;;;;;5.35;79.95;101652.03;5015005;28;45433;-73
2022/12/07 07:49:20;;;;;;;;;42.00;36.50;;;;;5.90;79.29;101717.81;5015493;28;45621;-73
2022/12/07 07:51:45;;;;;;;;;24.75;21.50;;;;;5.39;79.03;101626.38;5011299;28;46110;-72
2022/12/07 07:54:11;;;;;;;;;25.50;24.25;;;;;5.91;78.88;101703.66;4995596;28;45451;-73
2022/12/07 07:56:36;;;;;;;;;42.50;30.75;;;;;5.96;77.84;101720.31;4995479;28;45438;-72
2022/12/07 07:59:01;;;;;;;;;32.00;27.75;;;;;5.97;78.41;101724.69;5002482;28;45674;-72
2022/12/07 08:01:27;;;;;;;;;31.25;28.25;;;;;6.01;78.66;101728.19;5014791;28;45464;-71
2022/12/07 08:03:52;;;;;;;;;28.50;28.25;;;;;6.01;78.24;101720.25;5014993;28;45408;-73
2022/12/07 08:06:17;;;;;;;;;32.00;29.75;;;;;6.05;78.36;101727.19;5015361;28;45387;-73
2022/12/07 08:08:43;;;;;;;;;30.00;27.50;;;;;5.93;78.34;101693.91;5014828;28;45627;-73
2022/12/07 08:11:09;;;;;;;;;30.75;26.75;;;;;6.18;78.80;101723.34;5014761;28;46172;-73
2022/12/07 08:13:36;;;;;;;;;37.25;32.25;;;;;6.25;78.61;101720.50;5014460;28;45359;-73
2022/12/07 08:16:07;;;;;;;;;35.00;29.50;;;;;6.22;77.35;101724.09;5014457;28;45740;-73
2022/12/07 08:18:36;;;;;;;;;32.50;27.50;;;;;6.08;78.29;101695.31;5014726;28;45843;-73
2022/12/07 08:21:02;;;;;;;;;39.75;37.25;;;;;6.39;78.50;101734.28;5014564;28;46194;-73
2022/12/07 08:23:27;;;;;;;;;32.75;31.25;;;;;6.46;77.70;101735.88;5014615;28;45445;-73
2022/12/07 08:25:53;;;;;;;;;37.50;32.50;;;;;6.46;77.45;101733.22;5014891;28;45375;-73
2022/12/07 08:28:18;;;;;;;;;38.50;36.25;;;;;6.20;77.97;101688.84;5014499;28;45362;-73
2022/12/07 08:30:43;;;;;;;;;40.50;36.00;;;;;6.57;77.82;101741.75;4996775;28;45377;-73
2022/12/07 08:33:10;;;;;;;;;42.75;38.75;;;;;6.57;76.97;101746.19;5014581;28;45403;-73
2022/12/07 08:35:35;;;;;;;;;41.25;33.00;;;;;6.53;77.61;101744.53;5013282;28;45402;-73
2022/12/07 08:38:02;;;;;;;;;44.25;35.50;;;;;6.57;77.33;101743.53;5014617;28;45735;-73
2022/12/07 08:40:28;;;;;;;;;40.00;36.00;;;;;6.29;77.82;101685.06;5014422;28;45421;-73
2022/12/07 08:42:53;;;;;;;;;32.50;28.75;;;;;6.29;76.92;101677.13;5014200;28;45330;-73
2022/12/07 08:45:20;;;;;;;;;31.25;28.25;;;;;6.78;77.62;101754.50;4980235;28;45437;-73
2022/12/07 08:47:52;;;;;;;;;36.50;33.50;;;;;6.70;77.48;101757.34;5014334;28;45483;-72
2022/12/07 08:50:17;;;;;;;;;40.50;36.25;;;;;6.40;77.18;101713.03;4996261;28;48386;-72
2022/12/07 08:52:43;;;;;;;;;39.50;35.75;;;;;6.55;76.96;101746.22;4996523;28;45444;-73
2022/12/07 08:55:12;;;;;;;;;37.25;32.00;;;;;6.57;77.38;101751.47;5014608;28;45396;-73
2022/12/07 08:57:39;;;;;;;;;41.75;39.25;;;;;6.31;78.02;101710.63;5014306;28;45664;-73
2022/12/07 09:00:05;;;;;;;;;45.25;37.00;;;;;6.49;77.52;101726.97;5014096;28;45395;-73
2022/12/07 09:02:31;;;;;;;;;39.75;37.75;;;;;6.59;78.38;101738.19;5014104;28;45411;-73
2022/12/07 09:04:56;;;;;;;;;37.50;36.25;;;;;6.69;77.90;101737.91;5014347;28;45387;-73
2022/12/07 09:07:22;;;;;;;;;50.50;41.00;;;;;6.51;77.66;101696.00;5013836;28;45419;-73
2022/12/07 09:09:47;;;;;;;;;43.75;38.00;;;;;6.48;78.74;101690.75;4996169;28;46937;-73
2022/12/07 09:12:13;;;;;;;;;50.75;39.25;;;;;6.82;77.59;101735.78;5014063;28;45347;-71
2022/12/07 09:14:38;;;;;;;;;42.75;38.25;;;;;6.66;78.25;101740.63;4996401;28;45340;-73
2022/12/07 09:17:08;;;;;;;;;44.75;37.75;;;;;6.69;78.66;101742.34;5013757;28;45673;-71
2022/12/07 09:19:33;;;;;;;;;42.00;37.75;;;;;6.81;78.55;101741.13;5013839;28;46013;-73
2022/12/07 09:21:59;;;;;;;;;51.50;42.25;;;;;6.76;78.33;101743.03;5014068;28;45414;-73
2022/12/07 09:24:24;;;;;;;;;43.75;35.25;;;;;6.78;77.70;101743.88;5014285;28;45403;-73
2022/12/07 09:26:49;;;;;;;;;48.25;39.50;;;;;6.45;78.16;101685.53;5013443;28;45385;-73
2022/12/07 09:29:15;;;;;;;;;55.00;40.25;;;;;6.90;77.13;101744.41;5013714;28;47004;-73
2022/12/07 09:31:40;;;;;;;;;46.25;41.00;;;;;6.96;78.23;101750.44;5013793;28;45406;-72
2022/12/07 09:34:07;;;;;;;;;44.50;39.75;;;;;7.00;77.53;101728.22;5013937;28;45339;-72
2022/12/07 09:36:33;;;;;;;;;51.25;40.25;;;;;7.07;76.98;101743.94;5013718;28;45540;-72
2022/12/07 09:38:58;;;;;;;;;47.25;40.25;;;;;7.13;77.19;101740.22;5013653;28;45515;-72
2022/12/07 09:41:26;;;;;;;;;43.50;38.25;;;;;7.10;77.04;101726.16;4995590;28;45990;-72
2022/12/07 09:43:57;;;;;;;;;45.75;38.50;;;;;7.24;76.67;101747.88;4996016;28;45430;-72
2022/12/07 09:46:22;;;;;;;;;46.25;38.50;;;;;7.36;77.56;101736.88;5013823;28;45439;-72
2022/12/07 09:48:50;;;;;;;;;39.25;34.00;;;;;7.43;76.14;101740.22;5017276;28;45410;-72
2022/12/07 09:51:23;;;;;;;;;38.50;34.25;;;;;7.37;76.12;101737.78;5017316;28;45525;-72
2022/12/07 09:53:49;;;;;;;;;34.25;33.25;;;;;7.19;75.78;101736.50;4999045;28;45576;-72
2022/12/07 09:56:16;;;;;;;;;43.75;37.50;;;;;7.02;77.13;101729.91;5017157;28;45407;-72
2022/12/07 09:58:42;;;;;;;;;34.25;32.25;;;;;7.26;76.84;101730.13;5017105;28;45595;-72
2022/12/07 10:01:08;;;;;;;;;32.00;29.00;;;;;7.36;77.25;101728.91;5016463;28;45459;-72
2022/12/07 10:03:35;;;;;;;;;44.25;36.50;;;;;7.54;77.14;101739.91;5017057;28;45478;-72
2022/12/07 10:06:01;;;;;;;;;43.00;36.50;;;;;7.63;75.60;101723.69;5016875;28;45632;-72
2022/12/07 10:08:26;;;;;;;;;41.00;31.00;;;;;7.63;75.51;101723.69;5016379;28;45544;-72
2022/12/07 10:10:56;;;;;;;;;38.75;36.00;;;;;7.58;76.08;101722.94;4999364;28;45417;-72
2022/12/07 10:13:35;;;;;;;;;37.75;33.75;;;;;7.64;76.93;101724.53;5017629;28;45326;-71
2022/12/07 10:16:00;;;;;;;;;40.50;36.00;;;;;7.62;75.88;101727.25;5018356;28;45388;-71
2022/12/07 10:18:44;;;;;;;;;34.50;33.00;;;;;7.68;76.04;101727.06;5018687;28;45486;-71
2022/12/07 10:21:23;;;;;;;;;43.75;37.75;;;;;7.70;74.95;101727.03;5018407;28;45431;-71
2022/12/07 10:24:04;;;;;;;;;40.25;37.75;;;;;7.80;76.39;101717.84;5017862;28;45442;-72
2022/12/07 10:26:34;;;;;;;;;43.75;38.50;;;;;7.94;75.52;101713.88;5016821;28;45410;-72
2022/12/07 10:29:13;;;;;;;;;57.00;46.50;;;;;7.94;76.21;101709.41;5016522;28;45449;-72
2022/12/07 10:31:39;;;;;;;;;44.25;36.50;;;;;7.95;75.02;101719.13;5016270;28;45367;-72
2022/12/07 10:34:23;;;;;;;;;46.75;38.50;;;;;7.83;76.36;101692.97;5016892;28;45402;-72
2022/12/07 10:36:49;;;;;;;;;52.75;43.25;;;;;8.21;75.92;101698.78;5016577;28;45454;-72
2022/12/07 10:39:18;;;;;;;;;36.75;31.00;;;;;8.44;74.96;101705.13;5016331;28;46282;-72
2022/12/07 10:42:02;;;;;;;;;47.25;42.25;;;;;8.49;74.94;101697.84;5016263;28;45494;-72
2022/12/07 10:44:29;;;;;;;;;50.00;38.00;;;;;8.71;75.06;101700.63;5016264;28;45513;-72
2022/12/07 10:47:23;;;;;;;;;40.25;32.75;;;;;8.83;74.66;101700.19;5016232;28;45784;-71
2022/12/07 10:50:14;;;;;;;;;40.50;37.25;;;;;9.01;74.75;101677.31;5005099;28;46704;-71
2022/12/07 10:52:42;;;;;;;;;51.50;41.50;;;;;9.07;72.92;101678.91;4998140;28;45625;-71
2022/12/07 10:55:46;;;;;;;;;44.75;37.75;;;;;8.44;73.68;101537.59;5016262;28;45450;-71
2022/12/07 10:58:23;;;;;;;;;46.75;37.50;;;;;9.32;72.51;101662.81;4953742;28;45477;-71
2022/12/07 11:01:19;;;;;;;;;40.00;34.75;;;;;9.51;72.13;101659.44;4954479;28;45442;-71
2022/12/07 11:04:03;;;;;;;;;48.25;39.00;;;;;9.68;72.88;101654.28;4954583;28;45447;-71
2022/12/07 11:07:06;;;;;;;;;41.00;36.25;;;;;9.84;72.22;101653.66;4954511;28;45634;-71
2022/12/07 11:09:39;;;;;;;;;34.25;29.75;;;;;9.94;69.46;101650.53;4954633;28;45783;-71
2022/12/07 11:12:07;;;;;;;;;50.75;42.25;;;;;10.12;71.10;101649.81;4953963;28;45719;-71
2022/12/07 11:14:58;;;;;;;;;40.25;35.50;;;;;10.19;71.12;101645.94;4953278;28;45796;-72
2022/12/07 11:17:53;;;;;;;;;56.25;41.50;;;;;10.32;69.85;101638.28;4953925;28;45345;-71
2022/12/07 11:20:36;;;;;;;;;41.50;36.75;;;;;10.44;70.78;101635.97;4954414;28;45523;-72
2022/12/07 11:23:18;;;;;;;;;44.00;37.00;;;;;10.74;70.00;101624.88;4953994;28;46370;-71
2022/12/07 11:26:16;;;;;;;;;41.75;35.50;;;;;10.94;68.73;101621.28;4954362;28;45756;-71
2022/12/07 11:29:11;;;;;;;;;45.50;37.50;;;;;10.75;67.79;101549.19;4954760;28;45417;-71
2022/12/07 11:31:52;;;;;;;;;38.00;35.25;;;;;11.36;67.77;101607.72;4954421;28;45630;-71
2022/12/07 11:34:38;;;;;;;;;46.75;39.50;;;;;11.58;67.65;101610.19;4998315;28;46675;-71
2022/12/07 11:37:12;;;;;;;;;45.00;35.75;;;;;11.88;66.63;101609.63;5015524;28;45494;-72
2022/12/07 11:39:47;;;;;;;;;33.75;29.50;;;;;11.78;66.90;101547.72;5015187;28;45387;-72
2022/12/07 11:42:21;;;;;;;;;35.25;34.00;;;;;12.40;65.37;101614.97;5015497;28;45424;-72
2022/12/07 11:45:01;;;;;;;;;39.00;34.75;;;;;12.72;64.32;101606.97;5015258;28;45477;-71
2022/12/07 11:47:54;;;;;;;;;53.50;42.25;;;;;12.94;62.46;101587.94;5014961;28;45475;-72
2022/12/07 11:50:30;;;;;;;;;38.25;35.00;;;;;12.66;60.05;101535.06;5014766;28;45414;-71
2022/12/07 11:53:09;;;;;;;;;26.75;26.00;;;;;13.04;60.98;101593.63;4990058;28;45723;-71
2022/12/07 11:55:46;;;;;;;;;44.50;35.00;;;;;13.36;61.88;101588.31;5012102;28;46463;-72
2022/12/07 11:58:55;;;;;;;;;41.00;35.00;;;;;13.51;58.50;101582.97;5014503;28;45665;-71
2022/12/07 12:01:38;;;;;;;;;40.50;36.50;;;;;13.83;59.63;101582.91;5001963;28;45392;-71
2022/12/07 12:04:19;;;;;;;;;33.75;29.25;;;;;13.34;58.55;101504.41;5010607;28;45582;-71
2022/12/07 12:06:44;;;;;;;;;35.25;32.25;;;;;13.67;56.92;101575.78;5014216;28;45514;-72